Acapulco Jet — IWUM — position and weather

sailwx.info

Track history (hours):
 
Tides and Currents Weather Stations Pressure Air Temp Water Temp Dewpoint Dewpoint Depression Visibility Wind Speed Wind Dir Waves Ship Positions

Acapulco Jet

Last reported at 2016-Jul-23 17:32 UTC. Time now 2016-Jul-24 02:58 UTC.
Position N 42°52' E 010°26'.

Length 35 m; draft 1.3 m.

Type: High speed craft. MMSI: 247050100.

Date/timePositionNaut miles runAvg speedWind from/ knotsBaromVisibWave heightAir tempDewpointWater temp
2016-Jul-23 17:32N 42°52' E 010°26'0 0.0
2016-Jul-22 17:30N 42°52' E 010°26'0 0.0
2016-Jul-22 16:32N 42°52' E 010°25'5 3.4
2016-Jul-22 15:09N 42°54' E 010°31'8 5.0
2016-Jul-22 13:33N 42°50' E 010°22'3 1.6
2016-Jul-22 11:27N 42°52' E 010°26'5 4.3
2016-Jul-22 10:11N 42°49' E 010°19'5 8.4
2016-Jul-22 09:33N 42°52' E 010°25'7 4.9
2016-Jul-22 08:12N 42°55' E 010°33'1215.1
2016-Jul-22 07:25N 42°49' E 010°19'6 0.4
2016-Jul-21 17:25N 42°52' E 010°26'0 0.0
2016-Jul-21 16:32N 42°52' E 010°26'6 2.6
2016-Jul-21 14:24N 42°49' E 010°19'1 1.6
2016-Jul-21 13:33N 42°49' E 010°21'1 0.2
2016-Jul-21 07:32N 42°49' E 010°19'6 0.4
2016-Jul-20 17:26N 42°52' E 010°26'1 0.8
2016-Jul-20 16:33N 42°52' E 010°25'2 0.8
2016-Jul-20 13:32N 42°51' E 010°23'2 1.2
2016-Jul-20 11:33N 42°52' E 010°26'5 3.7
2016-Jul-20 10:04N 42°49' E 010°19'510.4
2016-Jul-20 09:33N 42°52' E 010°26'7 5.6
2016-Jul-20 08:15N 42°56' E 010°34'1316.2
2016-Jul-20 07:28N 42°49' E 010°19'4 0.3
2016-Jul-19 17:34N 42°51' E 010°23'2 1.7
2016-Jul-19 16:33N 42°52' E 010°25'3 1.0
2016-Jul-19 13:33N 42°50' E 010°22'3 1.6
2016-Jul-19 11:33N 42°52' E 010°26'4 1.0
2016-Jul-19 07:19N 42°49' E 010°21'4 0.3
2016-Jul-18 17:33N 42°52' E 010°26'2 0.5
2016-Jul-18 13:29N 42°51' E 010°23'2 0.9
2016-Jul-18 11:32N 42°52' E 010°25'0 0.0
2016-Jul-18 09:33N 42°52' E 010°25'7 5.5
2016-Jul-18 08:16N 42°56' E 010°33'9 9.2
2016-Jul-18 07:16N 42°51' E 010°23'8 0.6
2016-Jul-17 17:19N 42°55' E 010°32'6 7.1
2016-Jul-17 16:31N 42°52' E 010°25'4 1.3
2016-Jul-17 13:33N 42°49' E 010°21'4 0.2
2016-Jul-16 17:29N 42°52' E 010°25'7 3.1
2016-Jul-16 15:14N 42°56' E 010°33'1217.9
2016-Jul-16 14:33N 42°49' E 010°19'3 2.7
2016-Jul-16 13:34N 42°51' E 010°22'1 0.0
2016-Jul-14 13:33N 42°50' E 010°21'  
Track history (hours):
 
Tides and Currents Weather Stations Pressure Air Temp Water Temp Dewpoint Dewpoint Depression Visibility Wind Speed Wind Dir Waves Ship Positions

Acapulco Jet

Last reported at 2016-Jul-23 17:32 UTC. Time now 2016-Jul-24 02:58 UTC.
Position N 42°52' E 010°26'.

Length 35 m; draft 1.3 m.

Type: High speed craft. MMSI: 247050100.

Date/timePositionNaut miles runAvg speedWind from/ knotsBaromVisibWave heightAir tempDewpointWater temp
2016-Jul-23 17:32N 42°52' E 010°26'0 0.0
2016-Jul-22 17:30N 42°52' E 010°26'0 0.0
2016-Jul-22 16:32N 42°52' E 010°25'5 3.4
2016-Jul-22 15:09N 42°54' E 010°31'8 5.0
2016-Jul-22 13:33N 42°50' E 010°22'3 1.6
2016-Jul-22 11:27N 42°52' E 010°26'5 4.3
2016-Jul-22 10:11N 42°49' E 010°19'5 8.4
2016-Jul-22 09:33N 42°52' E 010°25'7 4.9
2016-Jul-22 08:12N 42°55' E 010°33'1215.1
2016-Jul-22 07:25N 42°49' E 010°19'6 0.4
2016-Jul-21 17:25N 42°52' E 010°26'0 0.0
2016-Jul-21 16:32N 42°52' E 010°26'6 2.6
2016-Jul-21 14:24N 42°49' E 010°19'1 1.6
2016-Jul-21 13:33N 42°49' E 010°21'1 0.2
2016-Jul-21 07:32N 42°49' E 010°19'6 0.4
2016-Jul-20 17:26N 42°52' E 010°26'1 0.8
2016-Jul-20 16:33N 42°52' E 010°25'2 0.8
2016-Jul-20 13:32N 42°51' E 010°23'2 1.2
2016-Jul-20 11:33N 42°52' E 010°26'5 3.7
2016-Jul-20 10:04N 42°49' E 010°19'510.4
2016-Jul-20 09:33N 42°52' E 010°26'7 5.6
2016-Jul-20 08:15N 42°56' E 010°34'1316.2
2016-Jul-20 07:28N 42°49' E 010°19'4 0.3
2016-Jul-19 17:34N 42°51' E 010°23'2 1.7
2016-Jul-19 16:33N 42°52' E 010°25'3 1.0
2016-Jul-19 13:33N 42°50' E 010°22'3 1.6
2016-Jul-19 11:33N 42°52' E 010°26'4 1.0
2016-Jul-19 07:19N 42°49' E 010°21'4 0.3
2016-Jul-18 17:33N 42°52' E 010°26'2 0.5
2016-Jul-18 13:29N 42°51' E 010°23'2 0.9
2016-Jul-18 11:32N 42°52' E 010°25'0 0.0
2016-Jul-18 09:33N 42°52' E 010°25'7 5.5
2016-Jul-18 08:16N 42°56' E 010°33'9 9.2
2016-Jul-18 07:16N 42°51' E 010°23'8 0.6
2016-Jul-17 17:19N 42°55' E 010°32'6 7.1
2016-Jul-17 16:31N 42°52' E 010°25'4 1.3
2016-Jul-17 13:33N 42°49' E 010°21'4 0.2
2016-Jul-16 17:29N 42°52' E 010°25'7 3.1
2016-Jul-16 15:14N 42°56' E 010°33'1217.9
2016-Jul-16 14:33N 42°49' E 010°19'3 2.7
2016-Jul-16 13:34N 42°51' E 010°22'1 0.0
2016-Jul-14 13:33N 42°50' E 010°21'  

Dump ship's entire track history